sensor_id;sensor_type;location;lat;lon;timestamp;P1;durP1;ratioP1;P2;durP2;ratioP2
19566;SDS011;9930;49.240;8.548;2023-02-05T00:01:46;4.13;;;3.08;;
19566;SDS011;9930;49.240;8.548;2023-02-05T00:04:15;4.35;;;3.10;;
19566;SDS011;9930;49.240;8.548;2023-02-05T00:06:45;3.40;;;2.97;;
19566;SDS011;9930;49.240;8.548;2023-02-05T00:09:11;6.22;;;3.20;;
19566;SDS011;9930;49.240;8.548;2023-02-05T00:11:40;5.30;;;3.75;;
19566;SDS011;9930;49.240;8.548;2023-02-05T00:14:10;5.38;;;3.90;;
19566;SDS011;9930;49.240;8.548;2023-02-05T00:16:40;6.65;;;4.20;;
19566;SDS011;9930;49.240;8.548;2023-02-05T00:19:15;4.97;;;3.83;;
19566;SDS011;9930;49.240;8.548;2023-02-05T00:21:42;4.38;;;3.60;;
19566;SDS011;9930;49.240;8.548;2023-02-05T00:24:10;4.50;;;3.67;;
19566;SDS011;9930;49.240;8.548;2023-02-05T00:26:40;4.28;;;3.33;;
19566;SDS011;9930;49.240;8.548;2023-02-05T00:29:10;4.43;;;3.60;;
19566;SDS011;9930;49.240;8.548;2023-02-05T00:31:45;3.80;;;3.40;;
19566;SDS011;9930;49.240;8.548;2023-02-05T00:34:15;3.92;;;3.00;;
19566;SDS011;9930;49.240;8.548;2023-02-05T00:36:42;4.55;;;3.60;;
19566;SDS011;9930;49.240;8.548;2023-02-05T00:39:15;4.13;;;3.45;;
19566;SDS011;9930;49.240;8.548;2023-02-05T00:41:44;4.93;;;3.35;;
19566;SDS011;9930;49.240;8.548;2023-02-05T00:44:10;3.83;;;3.13;;
19566;SDS011;9930;49.240;8.548;2023-02-05T00:46:47;3.05;;;2.83;;
19566;SDS011;9930;49.240;8.548;2023-02-05T00:49:17;4.03;;;2.80;;
19566;SDS011;9930;49.240;8.548;2023-02-05T00:51:47;4.55;;;3.15;;
19566;SDS011;9930;49.240;8.548;2023-02-05T00:54:20;4.43;;;3.20;;
19566;SDS011;9930;49.240;8.548;2023-02-05T00:56:48;3.53;;;3.22;;
19566;SDS011;9930;49.240;8.548;2023-02-05T00:59:15;3.88;;;3.10;;
19566;SDS011;9930;49.240;8.548;2023-02-05T01:01:41;3.78;;;3.22;;
19566;SDS011;9930;49.240;8.548;2023-02-05T01:04:10;3.58;;;2.90;;
19566;SDS011;9930;49.240;8.548;2023-02-05T01:06:39;3.30;;;2.85;;
19566;SDS011;9930;49.240;8.548;2023-02-05T01:09:04;3.13;;;2.83;;
19566;SDS011;9930;49.240;8.548;2023-02-05T01:11:30;4.15;;;3.08;;
19566;SDS011;9930;49.240;8.548;2023-02-05T01:13:58;4.20;;;2.90;;
19566;SDS011;9930;49.240;8.548;2023-02-05T01:16:26;3.60;;;2.90;;
19566;SDS011;9930;49.240;8.548;2023-02-05T01:18:52;3.35;;;2.92;;
19566;SDS011;9930;49.240;8.548;2023-02-05T01:21:23;3.97;;;2.90;;
19566;SDS011;9930;49.240;8.548;2023-02-05T01:23:49;3.63;;;2.80;;
19566;SDS011;9930;49.240;8.548;2023-02-05T01:26:16;3.22;;;2.92;;
19566;SDS011;9930;49.240;8.548;2023-02-05T01:28:45;3.00;;;2.70;;
19566;SDS011;9930;49.240;8.548;2023-02-05T01:31:14;4.40;;;2.83;;
19566;SDS011;9930;49.240;8.548;2023-02-05T01:33:40;3.30;;;3.00;;
19566;SDS011;9930;49.240;8.548;2023-02-05T01:36:10;3.40;;;3.10;;
19566;SDS011;9930;49.240;8.548;2023-02-05T01:38:50;3.47;;;3.08;;
19566;SDS011;9930;49.240;8.548;2023-02-05T01:41:18;4.47;;;2.88;;
19566;SDS011;9930;49.240;8.548;2023-02-05T01:44:06;3.10;;;2.80;;
19566;SDS011;9930;49.240;8.548;2023-02-05T01:46:48;4.22;;;3.03;;
19566;SDS011;9930;49.240;8.548;2023-02-05T01:49:21;3.15;;;2.85;;
19566;SDS011;9930;49.240;8.548;2023-02-05T01:51:58;3.25;;;2.95;;
19566;SDS011;9930;49.240;8.548;2023-02-05T01:54:33;3.35;;;2.85;;
19566;SDS011;9930;49.240;8.548;2023-02-05T01:57:06;3.25;;;2.80;;
19566;SDS011;9930;49.240;8.548;2023-02-05T01:59:40;3.28;;;2.80;;
19566;SDS011;9930;49.240;8.548;2023-02-05T02:02:16;3.40;;;2.83;;
19566;SDS011;9930;49.240;8.548;2023-02-05T02:04:54;3.47;;;3.17;;
19566;SDS011;9930;49.240;8.548;2023-02-05T02:07:25;3.10;;;2.80;;
19566;SDS011;9930;49.240;8.548;2023-02-05T02:09:51;3.47;;;2.70;;
19566;SDS011;9930;49.240;8.548;2023-02-05T02:12:23;3.22;;;2.65;;
19566;SDS011;9930;49.240;8.548;2023-02-05T02:15:00;3.08;;;2.72;;
19566;SDS011;9930;49.240;8.548;2023-02-05T02:17:35;4.03;;;3.20;;
19566;SDS011;9930;49.240;8.548;2023-02-05T02:20:27;3.00;;;2.70;;
19566;SDS011;9930;49.240;8.548;2023-02-05T02:23:10;3.72;;;2.97;;
19566;SDS011;9930;49.240;8.548;2023-02-05T02:29:18;3.20;;;2.50;;
19566;SDS011;9930;49.240;8.548;2023-02-05T02:35:26;2.83;;;2.53;;
19566;SDS011;9930;49.240;8.548;2023-02-05T02:38:11;3.47;;;2.85;;
19566;SDS011;9930;49.240;8.548;2023-02-05T02:40:58;2.63;;;2.20;;
19566;SDS011;9930;49.240;8.548;2023-02-05T02:46:21;3.50;;;3.08;;
19566;SDS011;9930;49.240;8.548;2023-02-05T02:48:59;3.60;;;3.00;;
19566;SDS011;9930;49.240;8.548;2023-02-05T02:51:30;6.10;;;4.05;;
19566;SDS011;9930;49.240;8.548;2023-02-05T02:54:05;4.82;;;3.50;;
19566;SDS011;9930;49.240;8.548;2023-02-05T02:56:40;4.75;;;3.40;;
19566;SDS011;9930;49.240;8.548;2023-02-05T02:59:16;3.08;;;2.78;;
19566;SDS011;9930;49.240;8.548;2023-02-05T03:01:53;5.50;;;3.30;;
19566;SDS011;9930;49.240;8.548;2023-02-05T03:04:24;5.57;;;3.53;;
19566;SDS011;9930;49.240;8.548;2023-02-05T03:07:26;5.20;;;3.47;;
19566;SDS011;9930;49.240;8.548;2023-02-05T03:10:11;6.03;;;3.50;;
19566;SDS011;9930;49.240;8.548;2023-02-05T03:13:11;3.40;;;3.10;;
19566;SDS011;9930;49.240;8.548;2023-02-05T03:15:45;3.90;;;2.90;;
19566;SDS011;9930;49.240;8.548;2023-02-05T03:18:14;3.65;;;3.03;;
19566;SDS011;9930;49.240;8.548;2023-02-05T03:20:49;3.17;;;2.88;;
19566;SDS011;9930;49.240;8.548;2023-02-05T03:23:20;4.28;;;3.00;;
19566;SDS011;9930;49.240;8.548;2023-02-05T03:25:50;4.22;;;3.10;;
19566;SDS011;9930;49.240;8.548;2023-02-05T03:28:15;3.35;;;3.05;;
19566;SDS011;9930;49.240;8.548;2023-02-05T03:37:06;3.38;;;2.70;;
19566;SDS011;9930;49.240;8.548;2023-02-05T03:42:50;3.50;;;2.92;;
19566;SDS011;9930;49.240;8.548;2023-02-05T03:57:07;5.07;;;3.65;;
19566;SDS011;9930;49.240;8.548;2023-02-05T03:59:47;4.47;;;3.33;;
19566;SDS011;9930;49.240;8.548;2023-02-05T04:02:17;4.13;;;3.45;;
19566;SDS011;9930;49.240;8.548;2023-02-05T04:04:46;4.18;;;3.65;;
19566;SDS011;9930;49.240;8.548;2023-02-05T04:07:15;4.75;;;3.92;;
19566;SDS011;9930;49.240;8.548;2023-02-05T04:09:45;5.05;;;4.22;;
19566;SDS011;9930;49.240;8.548;2023-02-05T04:12:11;5.82;;;4.32;;
19566;SDS011;9930;49.240;8.548;2023-02-05T04:14:40;4.85;;;4.10;;
19566;SDS011;9930;49.240;8.548;2023-02-05T04:17:11;5.47;;;3.90;;
19566;SDS011;9930;49.240;8.548;2023-02-05T04:19:41;6.35;;;4.20;;
19566;SDS011;9930;49.240;8.548;2023-02-05T04:22:17;4.68;;;3.55;;
19566;SDS011;9930;49.240;8.548;2023-02-05T04:24:45;4.10;;;3.70;;
19566;SDS011;9930;49.240;8.548;2023-02-05T04:27:15;4.20;;;3.25;;
19566;SDS011;9930;49.240;8.548;2023-02-05T04:29:45;5.50;;;3.97;;
19566;SDS011;9930;49.240;8.548;2023-02-05T04:32:16;4.20;;;3.75;;
19566;SDS011;9930;49.240;8.548;2023-02-05T04:34:45;3.85;;;3.47;;
19566;SDS011;9930;49.240;8.548;2023-02-05T04:37:12;3.90;;;3.35;;
19566;SDS011;9930;49.240;8.548;2023-02-05T04:39:41;4.95;;;3.35;;
19566;SDS011;9930;49.240;8.548;2023-02-05T04:42:11;4.45;;;3.50;;
19566;SDS011;9930;49.240;8.548;2023-02-05T04:44:48;3.53;;;3.13;;
19566;SDS011;9930;49.240;8.548;2023-02-05T04:47:15;4.70;;;3.70;;
19566;SDS011;9930;49.240;8.548;2023-02-05T04:49:41;5.05;;;3.80;;
19566;SDS011;9930;49.240;8.548;2023-02-05T04:52:10;4.38;;;3.47;;
19566;SDS011;9930;49.240;8.548;2023-02-05T04:54:38;3.92;;;3.53;;
19566;SDS011;9930;49.240;8.548;2023-02-05T04:57:04;4.00;;;3.33;;
19566;SDS011;9930;49.240;8.548;2023-02-05T04:59:32;4.13;;;3.70;;
19566;SDS011;9930;49.240;8.548;2023-02-05T05:02:03;3.90;;;3.50;;
19566;SDS011;9930;49.240;8.548;2023-02-05T05:04:29;6.15;;;4.38;;
19566;SDS011;9930;49.240;8.548;2023-02-05T05:06:54;5.30;;;3.40;;
19566;SDS011;9930;49.240;8.548;2023-02-05T05:09:20;3.63;;;3.28;;
19566;SDS011;9930;49.240;8.548;2023-02-05T05:11:53;4.07;;;3.67;;
19566;SDS011;9930;49.240;8.548;2023-02-05T05:14:21;5.60;;;4.55;;
19566;SDS011;9930;49.240;8.548;2023-02-05T05:16:49;4.10;;;3.72;;
19566;SDS011;9930;49.240;8.548;2023-02-05T05:19:16;4.10;;;3.65;;
19566;SDS011;9930;49.240;8.548;2023-02-05T05:21:42;5.18;;;4.07;;
19566;SDS011;9930;49.240;8.548;2023-02-05T05:24:11;4.43;;;4.03;;
19566;SDS011;9930;49.240;8.548;2023-02-05T05:26:41;5.65;;;4.03;;
19566;SDS011;9930;49.240;8.548;2023-02-05T05:29:14;4.30;;;3.90;;
19566;SDS011;9930;49.240;8.548;2023-02-05T05:31:41;4.25;;;3.78;;
19566;SDS011;9930;49.240;8.548;2023-02-05T05:34:20;4.78;;;4.22;;
19566;SDS011;9930;49.240;8.548;2023-02-05T05:36:48;5.00;;;4.18;;
19566;SDS011;9930;49.240;8.548;2023-02-05T05:39:17;4.63;;;3.85;;
19566;SDS011;9930;49.240;8.548;2023-02-05T05:42:04;5.60;;;4.25;;
19566;SDS011;9930;49.240;8.548;2023-02-05T05:44:52;4.63;;;4.18;;
19566;SDS011;9930;49.240;8.548;2023-02-05T05:47:18;4.88;;;3.80;;
19566;SDS011;9930;49.240;8.548;2023-02-05T05:49:46;4.22;;;3.83;;
19566;SDS011;9930;49.240;8.548;2023-02-05T05:52:15;6.57;;;4.47;;
19566;SDS011;9930;49.240;8.548;2023-02-05T05:54:45;5.45;;;4.70;;
19566;SDS011;9930;49.240;8.548;2023-02-05T05:57:15;5.90;;;3.95;;
19566;SDS011;9930;49.240;8.548;2023-02-05T05:59:45;4.93;;;4.00;;
19566;SDS011;9930;49.240;8.548;2023-02-05T06:02:15;4.50;;;4.03;;
19566;SDS011;9930;49.240;8.548;2023-02-05T06:04:43;5.80;;;4.28;;
19566;SDS011;9930;49.240;8.548;2023-02-05T06:07:15;4.63;;;4.18;;
19566;SDS011;9930;49.240;8.548;2023-02-05T06:09:48;5.68;;;4.93;;
19566;SDS011;9930;49.240;8.548;2023-02-05T06:12:15;5.65;;;4.43;;
19566;SDS011;9930;49.240;8.548;2023-02-05T06:14:48;4.32;;;3.92;;
19566;SDS011;9930;49.240;8.548;2023-02-05T06:17:15;5.03;;;4.53;;
19566;SDS011;9930;49.240;8.548;2023-02-05T06:19:45;5.18;;;4.38;;
19566;SDS011;9930;49.240;8.548;2023-02-05T06:22:15;7.00;;;4.90;;
19566;SDS011;9930;49.240;8.548;2023-02-05T06:24:44;5.18;;;4.60;;
19566;SDS011;9930;49.240;8.548;2023-02-05T06:27:19;6.55;;;4.93;;
19566;SDS011;9930;49.240;8.548;2023-02-05T06:29:46;6.03;;;5.20;;
19566;SDS011;9930;49.240;8.548;2023-02-05T06:32:12;6.55;;;5.35;;
19566;SDS011;9930;49.240;8.548;2023-02-05T06:34:43;6.75;;;5.75;;
19566;SDS011;9930;49.240;8.548;2023-02-05T06:37:11;6.57;;;5.93;;
19566;SDS011;9930;49.240;8.548;2023-02-05T06:39:47;6.13;;;5.63;;
19566;SDS011;9930;49.240;8.548;2023-02-05T06:42:15;7.65;;;5.57;;
19566;SDS011;9930;49.240;8.548;2023-02-05T06:44:45;6.20;;;5.38;;
19566;SDS011;9930;49.240;8.548;2023-02-05T06:47:15;6.30;;;5.13;;
19566;SDS011;9930;49.240;8.548;2023-02-05T06:49:47;6.43;;;5.03;;
19566;SDS011;9930;49.240;8.548;2023-02-05T06:52:16;7.97;;;5.65;;
19566;SDS011;9930;49.240;8.548;2023-02-05T06:54:45;7.00;;;5.03;;
19566;SDS011;9930;49.240;8.548;2023-02-05T06:57:15;7.00;;;5.47;;
19566;SDS011;9930;49.240;8.548;2023-02-05T06:59:44;6.10;;;5.50;;
19566;SDS011;9930;49.240;8.548;2023-02-05T07:02:12;6.15;;;5.40;;
19566;SDS011;9930;49.240;8.548;2023-02-05T07:04:45;8.77;;;5.82;;
19566;SDS011;9930;49.240;8.548;2023-02-05T07:07:11;6.75;;;5.40;;
19566;SDS011;9930;49.240;8.548;2023-02-05T07:09:44;8.50;;;5.55;;
19566;SDS011;9930;49.240;8.548;2023-02-05T07:12:10;7.13;;;5.05;;
19566;SDS011;9930;49.240;8.548;2023-02-05T07:14:40;6.32;;;5.43;;
19566;SDS011;9930;49.240;8.548;2023-02-05T07:17:08;6.13;;;5.00;;
19566;SDS011;9930;49.240;8.548;2023-02-05T07:19:34;5.75;;;4.90;;
19566;SDS011;9930;49.240;8.548;2023-02-05T07:22:04;6.32;;;5.55;;
19566;SDS011;9930;49.240;8.548;2023-02-05T07:24:30;8.00;;;5.82;;
19566;SDS011;9930;49.240;8.548;2023-02-05T07:26:58;5.57;;;5.00;;
19566;SDS011;9930;49.240;8.548;2023-02-05T07:29:24;6.32;;;5.70;;
19566;SDS011;9930;49.240;8.548;2023-02-05T07:31:50;6.75;;;6.05;;
19566;SDS011;9930;49.240;8.548;2023-02-05T07:34:16;9.52;;;6.82;;
19566;SDS011;9930;49.240;8.548;2023-02-05T07:36:48;9.93;;;6.60;;
19566;SDS011;9930;49.240;8.548;2023-02-05T07:39:16;12.35;;;9.15;;
19566;SDS011;9930;49.240;8.548;2023-02-05T07:41:45;10.63;;;6.78;;
19566;SDS011;9930;49.240;8.548;2023-02-05T07:44:16;7.93;;;6.22;;
19566;SDS011;9930;49.240;8.548;2023-02-05T07:46:42;10.48;;;8.23;;
19566;SDS011;9930;49.240;8.548;2023-02-05T07:49:11;13.88;;;10.80;;
19566;SDS011;9930;49.240;8.548;2023-02-05T07:51:41;11.05;;;9.93;;
19566;SDS011;9930;49.240;8.548;2023-02-05T07:54:11;12.77;;;11.05;;
19566;SDS011;9930;49.240;8.548;2023-02-05T07:56:48;12.23;;;10.60;;
19566;SDS011;9930;49.240;8.548;2023-02-05T07:59:15;9.98;;;8.57;;
19566;SDS011;9930;49.240;8.548;2023-02-05T08:01:44;10.05;;;7.45;;
19566;SDS011;9930;49.240;8.548;2023-02-05T08:04:14;8.18;;;7.10;;
19566;SDS011;9930;49.240;8.548;2023-02-05T08:06:41;8.88;;;6.60;;
19566;SDS011;9930;49.240;8.548;2023-02-05T08:09:11;6.65;;;5.47;;
19566;SDS011;9930;49.240;8.548;2023-02-05T08:11:41;6.50;;;5.82;;
19566;SDS011;9930;49.240;8.548;2023-02-05T08:14:11;6.93;;;5.35;;
19566;SDS011;9930;49.240;8.548;2023-02-05T08:16:41;7.22;;;6.22;;
19566;SDS011;9930;49.240;8.548;2023-02-05T08:19:19;7.25;;;5.20;;
19566;SDS011;9930;49.240;8.548;2023-02-05T08:21:47;9.27;;;6.88;;
19566;SDS011;9930;49.240;8.548;2023-02-05T08:24:18;6.88;;;5.43;;
19566;SDS011;9930;49.240;8.548;2023-02-05T08:26:48;9.55;;;5.55;;
19566;SDS011;9930;49.240;8.548;2023-02-05T08:29:18;7.82;;;6.03;;
19566;SDS011;9930;49.240;8.548;2023-02-05T08:31:52;9.20;;;6.40;;
19566;SDS011;9930;49.240;8.548;2023-02-05T08:34:18;8.02;;;6.00;;
19566;SDS011;9930;49.240;8.548;2023-02-05T08:36:45;7.22;;;5.70;;
19566;SDS011;9930;49.240;8.548;2023-02-05T08:39:18;7.10;;;5.65;;
19566;SDS011;9930;49.240;8.548;2023-02-05T08:41:46;7.50;;;5.78;;
19566;SDS011;9930;49.240;8.548;2023-02-05T08:44:12;8.48;;;6.72;;
19566;SDS011;9930;49.240;8.548;2023-02-05T08:46:41;9.70;;;6.57;;
19566;SDS011;9930;49.240;8.548;2023-02-05T08:49:11;9.98;;;7.32;;
19566;SDS011;9930;49.240;8.548;2023-02-05T08:51:41;10.45;;;7.13;;
19566;SDS011;9930;49.240;8.548;2023-02-05T08:54:15;9.85;;;7.07;;
19566;SDS011;9930;49.240;8.548;2023-02-05T08:56:42;9.45;;;7.70;;
19566;SDS011;9930;49.240;8.548;2023-02-05T08:59:16;9.88;;;7.53;;
19566;SDS011;9930;49.240;8.548;2023-02-05T09:01:46;9.32;;;7.97;;
19566;SDS011;9930;49.240;8.548;2023-02-05T09:04:17;12.73;;;7.68;;
19566;SDS011;9930;49.240;8.548;2023-02-05T09:06:46;12.52;;;8.70;;
19566;SDS011;9930;49.240;8.548;2023-02-05T09:09:13;8.57;;;7.63;;
19566;SDS011;9930;49.240;8.548;2023-02-05T09:11:45;9.13;;;7.68;;
19566;SDS011;9930;49.240;8.548;2023-02-05T09:14:20;8.13;;;7.32;;
19566;SDS011;9930;49.240;8.548;2023-02-05T09:16:46;9.27;;;7.80;;
19566;SDS011;9930;49.240;8.548;2023-02-05T09:19:14;8.68;;;7.25;;
19566;SDS011;9930;49.240;8.548;2023-02-05T09:21:44;9.27;;;7.25;;
19566;SDS011;9930;49.240;8.548;2023-02-05T09:24:15;9.07;;;7.18;;
19566;SDS011;9930;49.240;8.548;2023-02-05T09:26:41;8.88;;;6.88;;
19566;SDS011;9930;49.240;8.548;2023-02-05T09:29:19;9.27;;;7.20;;
19566;SDS011;9930;49.240;8.548;2023-02-05T09:31:46;9.25;;;7.72;;
19566;SDS011;9930;49.240;8.548;2023-02-05T09:34:16;11.35;;;7.85;;
19566;SDS011;9930;49.240;8.548;2023-02-05T09:36:46;9.02;;;6.90;;
19566;SDS011;9930;49.240;8.548;2023-02-05T09:39:16;7.75;;;6.95;;
19566;SDS011;9930;49.240;8.548;2023-02-05T09:41:50;8.27;;;7.10;;
19566;SDS011;9930;49.240;8.548;2023-02-05T09:50:19;9.10;;;6.82;;
19566;SDS011;9930;49.240;8.548;2023-02-05T09:52:53;8.52;;;6.90;;
19566;SDS011;9930;49.240;8.548;2023-02-05T09:55:32;7.50;;;6.13;;
19566;SDS011;9930;49.240;8.548;2023-02-05T09:58:06;7.03;;;6.28;;
19566;SDS011;9930;49.240;8.548;2023-02-05T10:00:50;8.10;;;6.88;;
19566;SDS011;9930;49.240;8.548;2023-02-05T10:12:42;9.93;;;6.65;;
19566;SDS011;9930;49.240;8.548;2023-02-05T10:19:24;9.90;;;6.88;;
19566;SDS011;9930;49.240;8.548;2023-02-05T10:22:13;9.60;;;6.95;;
19566;SDS011;9930;49.240;8.548;2023-02-05T10:25:19;7.93;;;6.80;;
19566;SDS011;9930;49.240;8.548;2023-02-05T10:37:41;8.82;;;7.10;;
19566;SDS011;9930;49.240;8.548;2023-02-05T10:40:17;9.63;;;6.55;;
19566;SDS011;9930;49.240;8.548;2023-02-05T10:45:41;7.32;;;6.07;;
19566;SDS011;9930;49.240;8.548;2023-02-05T10:51:06;9.27;;;6.70;;
19566;SDS011;9930;49.240;8.548;2023-02-05T10:53:41;8.88;;;6.70;;
19566;SDS011;9930;49.240;8.548;2023-02-05T10:56:14;9.40;;;6.00;;
19566;SDS011;9930;49.240;8.548;2023-02-05T11:01:29;10.30;;;6.60;;
19566;SDS011;9930;49.240;8.548;2023-02-05T11:04:06;8.68;;;6.18;;
19566;SDS011;9930;49.240;8.548;2023-02-05T11:06:42;8.77;;;6.40;;
19566;SDS011;9930;49.240;8.548;2023-02-05T11:11:59;8.43;;;6.57;;
19566;SDS011;9930;49.240;8.548;2023-02-05T11:15:15;8.25;;;7.13;;
19566;SDS011;9930;49.240;8.548;2023-02-05T11:17:50;10.50;;;6.60;;
19566;SDS011;9930;49.240;8.548;2023-02-05T11:20:27;8.25;;;6.75;;
19566;SDS011;9930;49.240;8.548;2023-02-05T11:23:14;9.30;;;6.97;;
19566;SDS011;9930;49.240;8.548;2023-02-05T11:25:53;8.77;;;7.60;;
19566;SDS011;9930;49.240;8.548;2023-02-05T11:28:26;10.13;;;7.13;;
19566;SDS011;9930;49.240;8.548;2023-02-05T11:30:57;6.82;;;6.13;;
19566;SDS011;9930;49.240;8.548;2023-02-05T11:34:08;8.70;;;7.05;;
19566;SDS011;9930;49.240;8.548;2023-02-05T11:36:47;8.27;;;7.03;;
19566;SDS011;9930;49.240;8.548;2023-02-05T11:42:10;9.50;;;7.88;;
19566;SDS011;9930;49.240;8.548;2023-02-05T11:44:54;18.40;;;14.45;;
19566;SDS011;9930;49.240;8.548;2023-02-05T11:47:32;11.82;;;9.90;;
19566;SDS011;9930;49.240;8.548;2023-02-05T11:50:03;11.43;;;8.48;;
19566;SDS011;9930;49.240;8.548;2023-02-05T11:52:46;8.88;;;7.93;;
19566;SDS011;9930;49.240;8.548;2023-02-05T11:55:27;8.88;;;7.72;;
19566;SDS011;9930;49.240;8.548;2023-02-05T11:58:04;13.70;;;12.40;;
19566;SDS011;9930;49.240;8.548;2023-02-05T12:00:50;10.85;;;8.68;;
19566;SDS011;9930;49.240;8.548;2023-02-05T12:03:22;8.75;;;7.85;;
19566;SDS011;9930;49.240;8.548;2023-02-05T12:06:08;9.00;;;7.88;;
19566;SDS011;9930;49.240;8.548;2023-02-05T12:08:51;9.00;;;7.57;;
19566;SDS011;9930;49.240;8.548;2023-02-05T12:11:35;10.57;;;9.43;;
19566;SDS011;9930;49.240;8.548;2023-02-05T12:17:30;9.35;;;7.78;;
19566;SDS011;9930;49.240;8.548;2023-02-05T12:20:24;10.07;;;8.80;;
19566;SDS011;9930;49.240;8.548;2023-02-05T12:23:54;8.98;;;8.07;;
19566;SDS011;9930;49.240;8.548;2023-02-05T12:26:43;8.20;;;7.40;;
19566;SDS011;9930;49.240;8.548;2023-02-05T12:40:32;10.50;;;9.10;;
19566;SDS011;9930;49.240;8.548;2023-02-05T12:43:27;12.05;;;9.95;;
19566;SDS011;9930;49.240;8.548;2023-02-05T12:51:55;10.35;;;9.02;;
19566;SDS011;9930;49.240;8.548;2023-02-05T12:54:32;9.23;;;8.32;;
19566;SDS011;9930;49.240;8.548;2023-02-05T13:00:21;9.40;;;8.35;;
19566;SDS011;9930;49.240;8.548;2023-02-05T13:06:03;7.75;;;7.00;;
19566;SDS011;9930;49.240;8.548;2023-02-05T13:08:37;8.38;;;7.57;;
19566;SDS011;9930;49.240;8.548;2023-02-05T13:11:13;7.65;;;6.85;;
19566;SDS011;9930;49.240;8.548;2023-02-05T13:14:00;7.63;;;6.93;;
19566;SDS011;9930;49.240;8.548;2023-02-05T13:16:39;7.40;;;6.63;;
19566;SDS011;9930;49.240;8.548;2023-02-05T13:19:32;8.70;;;7.80;;
19566;SDS011;9930;49.240;8.548;2023-02-05T13:22:12;9.10;;;8.13;;
19566;SDS011;9930;49.240;8.548;2023-02-05T13:25:30;8.25;;;7.30;;
19566;SDS011;9930;49.240;8.548;2023-02-05T13:34:05;12.20;;;10.98;;
19566;SDS011;9930;49.240;8.548;2023-02-05T13:39:28;15.65;;;13.02;;
19566;SDS011;9930;49.240;8.548;2023-02-05T13:54:23;9.15;;;8.35;;
19566;SDS011;9930;49.240;8.548;2023-02-05T14:00:00;8.55;;;7.75;;
19566;SDS011;9930;49.240;8.548;2023-02-05T14:05:16;7.93;;;7.22;;
19566;SDS011;9930;49.240;8.548;2023-02-05T14:08:01;8.00;;;7.20;;
19566;SDS011;9930;49.240;8.548;2023-02-05T14:10:42;7.70;;;7.00;;
19566;SDS011;9930;49.240;8.548;2023-02-05T14:13:22;7.88;;;7.18;;
19566;SDS011;9930;49.240;8.548;2023-02-05T14:15:58;8.07;;;7.25;;
19566;SDS011;9930;49.240;8.548;2023-02-05T14:18:49;8.57;;;7.75;;
19566;SDS011;9930;49.240;8.548;2023-02-05T14:21:47;8.52;;;7.72;;
19566;SDS011;9930;49.240;8.548;2023-02-05T14:24:25;8.93;;;8.02;;
19566;SDS011;9930;49.240;8.548;2023-02-05T14:29:53;13.18;;;11.88;;
19566;SDS011;9930;49.240;8.548;2023-02-05T14:37:58;10.43;;;9.43;;
19566;SDS011;9930;49.240;8.548;2023-02-05T14:41:00;10.65;;;9.65;;
19566;SDS011;9930;49.240;8.548;2023-02-05T14:43:35;11.55;;;9.93;;
19566;SDS011;9930;49.240;8.548;2023-02-05T14:46:05;9.57;;;8.70;;
19566;SDS011;9930;49.240;8.548;2023-02-05T14:54:52;10.43;;;9.52;;
19566;SDS011;9930;49.240;8.548;2023-02-05T14:58:02;8.90;;;8.05;;
19566;SDS011;9930;49.240;8.548;2023-02-05T15:00:48;9.48;;;8.57;;
19566;SDS011;9930;49.240;8.548;2023-02-05T15:03:22;8.88;;;7.97;;
19566;SDS011;9930;49.240;8.548;2023-02-05T15:06:04;8.93;;;7.93;;
19566;SDS011;9930;49.240;8.548;2023-02-05T15:08:49;10.15;;;8.52;;
19566;SDS011;9930;49.240;8.548;2023-02-05T15:20:01;9.40;;;8.50;;
19566;SDS011;9930;49.240;8.548;2023-02-05T15:22:52;10.32;;;9.43;;
19566;SDS011;9930;49.240;8.548;2023-02-05T15:28:06;9.73;;;8.82;;
19566;SDS011;9930;49.240;8.548;2023-02-05T15:30:50;8.73;;;7.82;;
19566;SDS011;9930;49.240;8.548;2023-02-05T15:33:32;8.70;;;7.85;;
19566;SDS011;9930;49.240;8.548;2023-02-05T15:36:19;9.20;;;8.23;;
19566;SDS011;9930;49.240;8.548;2023-02-05T15:38:59;8.95;;;8.15;;
19566;SDS011;9930;49.240;8.548;2023-02-05T15:41:48;8.57;;;7.78;;
19566;SDS011;9930;49.240;8.548;2023-02-05T15:44:27;9.50;;;8.48;;
19566;SDS011;9930;49.240;8.548;2023-02-05T15:46:59;8.40;;;7.60;;
19566;SDS011;9930;49.240;8.548;2023-02-05T15:49:37;9.00;;;8.10;;
19566;SDS011;9930;49.240;8.548;2023-02-05T15:52:21;10.43;;;9.23;;
19566;SDS011;9930;49.240;8.548;2023-02-05T15:54:58;8.88;;;8.02;;
19566;SDS011;9930;49.240;8.548;2023-02-05T15:57:35;9.65;;;8.75;;
19566;SDS011;9930;49.240;8.548;2023-02-05T16:00:01;10.63;;;9.27;;
19566;SDS011;9930;49.240;8.548;2023-02-05T16:02:36;10.32;;;9.20;;
19566;SDS011;9930;49.240;8.548;2023-02-05T16:05:18;10.45;;;9.38;;
19566;SDS011;9930;49.240;8.548;2023-02-05T16:07:49;11.05;;;9.95;;
19566;SDS011;9930;49.240;8.548;2023-02-05T16:10:26;10.45;;;9.32;;
19566;SDS011;9930;49.240;8.548;2023-02-05T16:15:53;11.88;;;9.70;;
19566;SDS011;9930;49.240;8.548;2023-02-05T16:23:58;6.90;;;6.20;;
19566;SDS011;9930;49.240;8.548;2023-02-05T16:26:39;6.85;;;6.05;;
19566;SDS011;9930;49.240;8.548;2023-02-05T16:29:34;6.35;;;5.85;;
19566;SDS011;9930;49.240;8.548;2023-02-05T16:32:20;6.45;;;5.85;;
19566;SDS011;9930;49.240;8.548;2023-02-05T16:34:56;6.55;;;5.95;;
19566;SDS011;9930;49.240;8.548;2023-02-05T16:37:26;6.70;;;6.10;;
19566;SDS011;9930;49.240;8.548;2023-02-05T16:39:55;7.88;;;7.18;;
19566;SDS011;9930;49.240;8.548;2023-02-05T16:45:01;10.48;;;9.48;;
19566;SDS011;9930;49.240;8.548;2023-02-05T16:47:36;12.93;;;11.73;;
19566;SDS011;9930;49.240;8.548;2023-02-05T16:53:19;8.65;;;7.75;;
19566;SDS011;9930;49.240;8.548;2023-02-05T16:55:58;8.50;;;7.70;;
19566;SDS011;9930;49.240;8.548;2023-02-05T16:58:50;6.15;;;5.65;;
19566;SDS011;9930;49.240;8.548;2023-02-05T17:01:30;6.82;;;6.22;;
19566;SDS011;9930;49.240;8.548;2023-02-05T17:04:19;6.82;;;5.97;;
19566;SDS011;9930;49.240;8.548;2023-02-05T17:06:53;7.28;;;6.57;;
19566;SDS011;9930;49.240;8.548;2023-02-05T17:09:36;7.30;;;6.68;;
19566;SDS011;9930;49.240;8.548;2023-02-05T17:17:52;7.72;;;6.93;;
19566;SDS011;9930;49.240;8.548;2023-02-05T17:20:21;5.97;;;5.47;;
19566;SDS011;9930;49.240;8.548;2023-02-05T17:25:32;6.05;;;5.45;;
19566;SDS011;9930;49.240;8.548;2023-02-05T17:28:18;5.18;;;4.75;;
19566;SDS011;9930;49.240;8.548;2023-02-05T17:30:50;5.15;;;4.75;;
19566;SDS011;9930;49.240;8.548;2023-02-05T17:33:24;6.35;;;5.47;;
19566;SDS011;9930;49.240;8.548;2023-02-05T17:35:52;5.50;;;5.00;;
19566;SDS011;9930;49.240;8.548;2023-02-05T17:38:18;5.20;;;4.70;;
19566;SDS011;9930;49.240;8.548;2023-02-05T17:40:45;6.28;;;5.68;;
19566;SDS011;9930;49.240;8.548;2023-02-05T17:43:15;6.65;;;5.95;;
19566;SDS011;9930;49.240;8.548;2023-02-05T17:45:41;5.95;;;5.45;;
19566;SDS011;9930;49.240;8.548;2023-02-05T17:48:11;6.30;;;5.70;;
19566;SDS011;9930;49.240;8.548;2023-02-05T17:50:37;6.25;;;5.65;;
19566;SDS011;9930;49.240;8.548;2023-02-05T17:53:05;6.00;;;5.50;;
19566;SDS011;9930;49.240;8.548;2023-02-05T17:55:33;6.18;;;5.60;;
19566;SDS011;9930;49.240;8.548;2023-02-05T17:58:00;6.75;;;6.10;;
19566;SDS011;9930;49.240;8.548;2023-02-05T18:00:35;7.40;;;6.70;;
19566;SDS011;9930;49.240;8.548;2023-02-05T18:03:07;8.05;;;7.22;;
19566;SDS011;9930;49.240;8.548;2023-02-05T18:05:32;8.07;;;7.28;;
19566;SDS011;9930;49.240;8.548;2023-02-05T18:07:58;8.73;;;7.93;;
19566;SDS011;9930;49.240;8.548;2023-02-05T18:10:28;8.35;;;7.55;;
19566;SDS011;9930;49.240;8.548;2023-02-05T18:13:00;7.38;;;6.68;;
19566;SDS011;9930;49.240;8.548;2023-02-05T18:15:27;7.97;;;7.28;;
19566;SDS011;9930;49.240;8.548;2023-02-05T18:17:55;7.32;;;6.72;;
19566;SDS011;9930;49.240;8.548;2023-02-05T18:20:21;7.32;;;6.63;;
19566;SDS011;9930;49.240;8.548;2023-02-05T18:22:47;7.05;;;6.45;;
19566;SDS011;9930;49.240;8.548;2023-02-05T18:25:16;7.00;;;6.30;;
19566;SDS011;9930;49.240;8.548;2023-02-05T18:27:46;7.15;;;6.55;;
19566;SDS011;9930;49.240;8.548;2023-02-05T18:30:17;7.40;;;6.70;;
19566;SDS011;9930;49.240;8.548;2023-02-05T18:32:44;7.20;;;6.50;;
19566;SDS011;9930;49.240;8.548;2023-02-05T18:35:17;7.47;;;6.78;;
19566;SDS011;9930;49.240;8.548;2023-02-05T18:37:45;6.80;;;6.20;;